createdAt,value
2023-03-27T00:01:24.701Z,5.12
2023-03-27T00:03:53.541Z,5.08
2023-03-27T00:06:21.945Z,5.13
2023-03-27T00:08:51.159Z,5.15
2023-03-27T00:11:19.572Z,5.17
2023-03-27T00:13:50.649Z,5.19
2023-03-27T00:16:23.714Z,5.23
2023-03-27T00:18:50.566Z,5.20
2023-03-27T00:21:17.292Z,5.13
2023-03-27T00:23:44.254Z,5.03
2023-03-27T00:26:12.209Z,5.07
2023-03-27T00:28:39.186Z,5.07
2023-03-27T00:31:10.824Z,5.13
2023-03-27T00:33:37.674Z,5.13
2023-03-27T00:36:04.576Z,5.11
2023-03-27T00:38:31.444Z,4.97
2023-03-27T00:40:58.393Z,5.07
2023-03-27T00:43:34.620Z,5.00
2023-03-27T00:46:28.004Z,5.01
2023-03-27T00:48:56.190Z,5.04
2023-03-27T00:51:25.094Z,4.99
2023-03-27T00:53:52.864Z,4.94
2023-03-27T00:56:20.079Z,4.87
2023-03-27T00:58:51.337Z,4.80
2023-03-27T01:01:21.792Z,4.77
2023-03-27T01:03:50.183Z,4.69
2023-03-27T01:06:17.487Z,4.66
2023-03-27T01:08:45.450Z,4.63
2023-03-27T01:11:20.181Z,4.60
2023-03-27T01:14:10.977Z,4.55
2023-03-27T01:16:45.646Z,4.55
2023-03-27T01:19:30.527Z,4.55
2023-03-27T01:22:00.033Z,4.55
2023-03-27T01:24:35.624Z,4.52
2023-03-27T01:27:16.304Z,4.48
2023-03-27T01:30:09.027Z,4.57
2023-03-27T01:32:47.830Z,4.53
2023-03-27T01:35:39.328Z,4.43
2023-03-27T01:38:37.813Z,4.47
2023-03-27T01:41:24.572Z,4.49
2023-03-27T01:44:14.890Z,4.54
2023-03-27T01:46:56.392Z,4.54
2023-03-27T01:49:34.306Z,4.49
2023-03-27T01:52:05.123Z,4.53
2023-03-27T01:54:39.197Z,4.58
2023-03-27T01:57:16.087Z,4.51
2023-03-27T01:59:49.007Z,4.57
2023-03-27T02:02:25.459Z,4.49
2023-03-27T02:05:08.910Z,4.52
2023-03-27T02:07:41.863Z,4.46
2023-03-27T02:10:15.456Z,4.44
2023-03-27T02:12:51.361Z,4.34
2023-03-27T02:15:25.575Z,4.24
2023-03-27T02:18:05.016Z,4.12
2023-03-27T02:20:39.795Z,4.03
2023-03-27T02:23:07.797Z,3.89
2023-03-27T02:25:37.128Z,3.90
2023-03-27T02:28:22.871Z,3.98
2023-03-27T02:31:33.180Z,4.04
2023-03-27T02:34:10.609Z,4.02
2023-03-27T02:37:02.435Z,3.96
2023-03-27T02:39:55.204Z,3.96
2023-03-27T02:42:50.265Z,3.91
2023-03-27T02:45:28.272Z,3.93
2023-03-27T02:48:18.903Z,3.92
2023-03-27T02:50:54.389Z,3.83
2023-03-27T02:53:24.520Z,3.85
2023-03-27T02:55:55.900Z,3.87
2023-03-27T02:58:32.341Z,3.77
2023-03-27T03:01:00.672Z,3.80
2023-03-27T03:03:38.982Z,3.84
2023-03-27T03:06:07.091Z,3.89
2023-03-27T03:08:38.356Z,3.88
2023-03-27T03:11:09.059Z,3.85
2023-03-27T03:13:36.354Z,3.87
2023-03-27T03:16:03.274Z,3.80
2023-03-27T03:18:30.300Z,3.80
2023-03-27T03:20:57.069Z,3.71
2023-03-27T03:23:24.380Z,3.69
2023-03-27T03:25:52.754Z,3.66
2023-03-27T03:28:19.675Z,3.60
2023-03-27T03:30:50.591Z,3.50
2023-03-27T03:33:19.523Z,3.40
2023-03-27T03:35:50.795Z,3.35
2023-03-27T03:38:28.093Z,3.30
2023-03-27T03:40:56.667Z,3.21
2023-03-27T03:43:25.862Z,3.13
2023-03-27T03:45:53.954Z,3.00
2023-03-27T03:48:22.149Z,2.90
2023-03-27T03:50:49.794Z,2.80
2023-03-27T03:53:19.090Z,2.68
2023-03-27T03:55:46.760Z,2.68
2023-03-27T03:58:13.559Z,2.59
2023-03-27T04:00:40.623Z,2.47
2023-03-27T04:03:09.442Z,2.40
2023-03-27T04:05:37.853Z,2.32
2023-03-27T04:08:08.230Z,2.26
2023-03-27T04:10:38.361Z,2.17
2023-03-27T04:13:06.412Z,2.17
2023-03-27T04:15:33.740Z,2.09
2023-03-27T04:18:01.053Z,2.06
2023-03-27T04:20:28.213Z,1.94
2023-03-27T04:22:54.970Z,1.96
2023-03-27T04:25:23.650Z,1.90
2023-03-27T04:27:51.381Z,1.86
2023-03-27T04:30:23.060Z,1.74
2023-03-27T04:32:50.970Z,1.68
2023-03-27T04:35:18.423Z,1.63
2023-03-27T04:37:46.509Z,1.61
2023-03-27T04:40:15.545Z,1.57
2023-03-27T04:42:43.986Z,1.48
2023-03-27T04:45:17.344Z,1.42
2023-03-27T04:47:44.455Z,1.43
2023-03-27T04:50:11.778Z,1.39
2023-03-27T04:52:38.820Z,1.31
2023-03-27T04:55:06.605Z,1.25
2023-03-27T04:57:34.177Z,1.18
2023-03-27T05:00:02.302Z,1.17
2023-03-27T05:02:30.689Z,1.05
2023-03-27T05:04:58.404Z,1.07
2023-03-27T05:07:26.634Z,1.03
2023-03-27T05:09:53.385Z,0.97
2023-03-27T05:12:21.589Z,0.90
2023-03-27T05:14:48.666Z,0.84
2023-03-27T05:17:18.321Z,0.69
2023-03-27T05:19:45.297Z,0.64
2023-03-27T05:22:13.843Z,0.68
2023-03-27T05:24:40.449Z,0.58
2023-03-27T05:27:07.107Z,0.63
2023-03-27T05:29:47.351Z,0.62
2023-03-27T05:32:14.676Z,0.58
2023-03-27T05:34:42.389Z,0.55
2023-03-27T05:37:09.419Z,0.47
2023-03-27T05:39:36.925Z,0.37
2023-03-27T05:42:04.252Z,0.39
2023-03-27T05:44:31.130Z,0.31
2023-03-27T05:47:01.330Z,0.20
2023-03-27T05:49:28.072Z,0.23
2023-03-27T05:51:54.714Z,0.32
2023-03-27T05:54:21.388Z,0.18
2023-03-27T05:56:47.990Z,0.14
2023-03-27T05:59:14.776Z,0.18
2023-03-27T06:01:41.396Z,0.18
2023-03-27T06:04:09.536Z,0.13
2023-03-27T06:06:36.350Z,0.08
2023-03-27T06:09:03.836Z,0.11
2023-03-27T06:11:30.878Z,0.24
2023-03-27T06:13:58.676Z,0.25
2023-03-27T06:16:25.895Z,0.34
2023-03-27T06:18:53.139Z,0.38
2023-03-27T06:21:20.928Z,0.39
2023-03-27T06:23:47.899Z,0.31
2023-03-27T06:26:15.720Z,0.32
2023-03-27T06:28:42.625Z,0.38
2023-03-27T06:31:09.427Z,0.32
2023-03-27T06:33:36.151Z,0.35
2023-03-27T06:36:02.942Z,0.37
2023-03-27T06:38:33.031Z,0.35
2023-03-27T06:41:00.749Z,0.39
2023-03-27T06:43:27.550Z,0.44
2023-03-27T06:45:54.656Z,0.48
2023-03-27T06:48:22.650Z,0.46
2023-03-27T06:50:51.767Z,0.49
2023-03-27T06:53:27.423Z,0.50
2023-03-27T06:55:55.698Z,0.58
2023-03-27T06:58:22.574Z,0.57
2023-03-27T07:00:50.438Z,0.68
2023-03-27T07:03:19.007Z,0.67
2023-03-27T07:05:45.817Z,0.71
2023-03-27T07:08:23.461Z,0.89
2023-03-27T07:11:07.968Z,1.08
2023-03-27T07:13:37.446Z,1.14
2023-03-27T07:16:04.713Z,1.26
2023-03-27T07:18:31.454Z,1.45
2023-03-27T07:20:58.379Z,1.52
2023-03-27T07:23:25.434Z,1.64
2023-03-27T07:25:56.880Z,1.73
2023-03-27T07:28:23.697Z,1.80
2023-03-27T07:30:50.393Z,1.81
2023-03-27T07:33:17.171Z,1.87
2023-03-27T07:35:47.539Z,1.93
2023-03-27T07:38:16.086Z,2.12
2023-03-27T07:40:50.521Z,2.34
2023-03-27T07:43:23.154Z,2.49
2023-03-27T07:45:49.947Z,2.63
2023-03-27T07:48:16.952Z,2.90
2023-03-27T07:50:45.049Z,3.00
2023-03-27T07:53:32.591Z,3.21
2023-03-27T07:55:59.447Z,3.44
2023-03-27T07:58:26.381Z,3.59
2023-03-27T08:00:53.354Z,3.69
2023-03-27T08:03:21.117Z,3.75
2023-03-27T08:05:56.199Z,3.80
2023-03-27T08:08:23.787Z,3.90
2023-03-27T08:10:51.714Z,4.01
2023-03-27T08:13:18.493Z,4.15
2023-03-27T08:15:45.342Z,4.18
2023-03-27T08:18:12.215Z,4.25
2023-03-27T08:20:39.314Z,4.37
2023-03-27T08:23:06.612Z,4.50
2023-03-27T08:25:33.420Z,4.61
2023-03-27T08:28:01.938Z,4.68
2023-03-27T08:30:29.144Z,4.74
2023-03-27T08:32:56.920Z,4.86
2023-03-27T08:35:23.712Z,4.90
2023-03-27T08:37:50.422Z,4.99
2023-03-27T08:40:21.666Z,5.06
2023-03-27T08:42:52.452Z,5.12
2023-03-27T08:45:42.975Z,5.17
2023-03-27T08:48:19.206Z,5.16
2023-03-27T08:50:51.925Z,5.31
2023-03-27T08:53:37.252Z,5.40
2023-03-27T08:56:04.358Z,5.35
2023-03-27T08:58:33.080Z,5.43
2023-03-27T09:01:11.828Z,5.50
2023-03-27T09:03:57.562Z,5.46
2023-03-27T09:06:38.340Z,5.55
2023-03-27T09:09:07.817Z,5.56
2023-03-27T09:11:49.577Z,5.65
2023-03-27T09:14:46.389Z,5.73
2023-03-27T09:17:22.176Z,5.69
2023-03-27T09:20:00.424Z,5.73
2023-03-27T09:22:40.816Z,5.73
2023-03-27T09:25:20.210Z,5.70
2023-03-27T09:27:48.808Z,5.70
2023-03-27T09:30:21.018Z,5.78
2023-03-27T09:32:51.611Z,5.90
2023-03-27T09:35:20.821Z,5.87
2023-03-27T09:38:02.748Z,6.01
2023-03-27T09:40:53.260Z,6.11
2023-03-27T09:43:24.826Z,6.03
2023-03-27T09:45:54.945Z,6.18
2023-03-27T09:48:38.397Z,6.29
2023-03-27T09:51:05.900Z,6.39
2023-03-27T09:53:32.749Z,6.18
2023-03-27T09:56:05.493Z,6.32
2023-03-27T09:58:44.474Z,6.36
2023-03-27T10:01:27.818Z,6.45
2023-03-27T10:03:57.416Z,6.53
2023-03-27T10:06:37.863Z,6.54
2023-03-27T10:09:22.853Z,6.54
2023-03-27T10:11:51.770Z,6.58
2023-03-27T10:14:21.409Z,6.53
2023-03-27T10:16:48.419Z,6.71
2023-03-27T10:19:29.657Z,6.88
2023-03-27T10:22:00.578Z,6.93
2023-03-27T10:24:44.407Z,6.96
2023-03-27T10:27:18.985Z,7.08
2023-03-27T10:29:45.822Z,7.19
2023-03-27T10:32:12.542Z,7.28
2023-03-27T10:34:54.394Z,7.26
2023-03-27T10:37:34.370Z,7.63
2023-03-27T10:40:03.587Z,7.77
2023-03-27T10:42:32.572Z,7.82
2023-03-27T10:45:00.577Z,7.83
2023-03-27T10:47:32.428Z,7.74
2023-03-27T10:50:17.751Z,7.62
2023-03-27T10:52:52.384Z,7.68
2023-03-27T10:55:41.512Z,7.81
2023-03-27T10:58:39.046Z,7.89
2023-03-27T11:01:40.650Z,8.08
2023-03-27T11:04:19.735Z,8.23
2023-03-27T11:06:50.796Z,8.37
2023-03-27T11:09:27.933Z,8.49
2023-03-27T11:12:04.401Z,8.61
2023-03-27T11:14:48.356Z,8.70
2023-03-27T11:17:21.326Z,8.68
2023-03-27T11:19:54.685Z,8.49
2023-03-27T11:22:48.413Z,8.55
2023-03-27T11:25:28.564Z,8.58
2023-03-27T11:28:05.760Z,8.66
2023-03-27T11:30:50.995Z,8.52
2023-03-27T11:33:29.408Z,8.58
2023-03-27T11:36:37.970Z,8.45
2023-03-27T11:39:23.186Z,8.52
2023-03-27T11:42:02.556Z,8.62
2023-03-27T11:44:32.221Z,8.64
2023-03-27T11:47:34.034Z,8.83
2023-03-27T11:50:25.115Z,9.19
2023-03-27T11:53:12.270Z,9.50
2023-03-27T11:56:02.970Z,9.56
2023-03-27T11:58:43.858Z,9.36
2023-03-27T12:01:17.315Z,9.27
2023-03-27T12:04:33.945Z,9.23
2023-03-27T12:07:36.642Z,9.31
2023-03-27T12:10:12.020Z,9.39
2023-03-27T12:12:47.857Z,9.56
2023-03-27T12:15:40.014Z,9.64
2023-03-27T12:18:15.978Z,9.56
2023-03-27T12:21:05.909Z,9.58
2023-03-27T12:23:38.798Z,9.43
2023-03-27T12:26:40.977Z,9.11
2023-03-27T12:29:52.609Z,9.10
2023-03-27T12:32:25.032Z,9.34
2023-03-27T12:34:59.815Z,9.25
2023-03-27T12:37:31.204Z,9.12
2023-03-27T12:39:59.872Z,9.18
2023-03-27T12:42:51.850Z,8.99
2023-03-27T12:45:23.585Z,8.85
2023-03-27T12:48:10.055Z,8.72
2023-03-27T12:50:52.747Z,8.67
2023-03-27T12:53:39.586Z,8.67
2023-03-27T12:56:16.485Z,8.58
2023-03-27T12:58:43.850Z,8.64
2023-03-27T13:01:12.012Z,8.69
2023-03-27T13:03:41.750Z,8.81
2023-03-27T13:06:27.362Z,8.85
2023-03-27T13:09:25.987Z,8.90
2023-03-27T13:12:04.662Z,8.93
2023-03-27T13:14:37.805Z,9.03
2023-03-27T13:17:33.715Z,9.15
2023-03-27T13:20:27.435Z,9.26
2023-03-27T13:23:15.775Z,9.44
2023-03-27T13:26:10.561Z,9.70
2023-03-27T13:28:40.434Z,9.89
2023-03-27T13:31:11.313Z,10.01
2023-03-27T13:33:42.677Z,10.06
2023-03-27T13:36:14.541Z,10.18
2023-03-27T13:38:53.433Z,10.20
2023-03-27T13:41:44.916Z,10.31
2023-03-27T13:44:14.427Z,10.13
2023-03-27T13:46:57.318Z,10.08
2023-03-27T13:49:51.891Z,10.06
2023-03-27T13:52:32.049Z,9.99
2023-03-27T13:55:19.694Z,9.70
2023-03-27T13:58:07.423Z,9.44
2023-03-27T14:01:17.313Z,9.28
2023-03-27T14:04:11.933Z,9.17
2023-03-27T14:07:12.584Z,9.04
2023-03-27T14:10:08.515Z,8.89
2023-03-27T14:12:46.928Z,8.94
2023-03-27T14:15:32.289Z,9.05
2023-03-27T14:18:25.700Z,9.04
2023-03-27T14:20:58.413Z,9.09
2023-03-27T14:23:29.852Z,9.14
2023-03-27T14:26:05.869Z,9.30
2023-03-27T14:28:55.757Z,9.36
2023-03-27T14:31:24.177Z,9.22
2023-03-27T14:34:13.336Z,9.32
2023-03-27T14:36:52.079Z,9.52
2023-03-27T14:39:26.078Z,9.57
2023-03-27T14:42:01.510Z,9.81
2023-03-27T14:44:32.187Z,10.05
2023-03-27T14:47:11.997Z,10.19
2023-03-27T14:49:45.640Z,10.29
2023-03-27T14:52:25.120Z,10.37
2023-03-27T14:54:55.783Z,10.29
2023-03-27T14:57:25.862Z,10.41
2023-03-27T14:59:53.510Z,10.36
2023-03-27T15:02:31.860Z,10.32
2023-03-27T15:05:14.753Z,10.19
2023-03-27T15:07:43.147Z,10.03
2023-03-27T15:10:17.643Z,9.89
2023-03-27T15:12:48.124Z,9.78
2023-03-27T15:15:43.977Z,9.65
2023-03-27T15:18:16.874Z,9.60
2023-03-27T15:20:44.194Z,9.66
2023-03-27T15:23:24.072Z,9.60
2023-03-27T15:25:56.241Z,9.68
2023-03-27T15:28:31.267Z,9.45
2023-03-27T15:31:00.967Z,9.35
2023-03-27T15:33:36.978Z,9.23
2023-03-27T15:36:11.293Z,9.12
2023-03-27T15:38:39.690Z,9.00
2023-03-27T15:41:09.108Z,8.92
2023-03-27T15:43:35.942Z,8.94
2023-03-27T15:46:14.204Z,8.93
2023-03-27T15:48:45.560Z,8.95
2023-03-27T15:51:28.775Z,8.94
2023-03-27T15:53:58.515Z,9.02
2023-03-27T15:56:34.115Z,9.11
2023-03-27T15:59:04.737Z,9.17
2023-03-27T16:01:38.245Z,9.20
2023-03-27T16:04:16.721Z,9.12
2023-03-27T16:06:47.271Z,9.17
2023-03-27T16:09:35.912Z,9.25
2023-03-27T16:12:03.289Z,9.25
2023-03-27T16:14:41.728Z,9.23
2023-03-27T16:17:19.120Z,9.24
2023-03-27T16:19:57.007Z,9.24
2023-03-27T16:22:25.220Z,9.28
2023-03-27T16:24:52.862Z,9.36
2023-03-27T16:27:23.063Z,9.38
2023-03-27T16:29:51.694Z,9.34
2023-03-27T16:32:20.249Z,9.32
2023-03-27T16:34:53.323Z,9.38
2023-03-27T16:37:22.942Z,9.44
2023-03-27T16:39:50.016Z,9.38
2023-03-27T16:42:19.275Z,9.37
2023-03-27T16:44:46.185Z,9.34
2023-03-27T16:47:14.272Z,9.31
2023-03-27T16:49:41.268Z,9.26
2023-03-27T16:52:08.160Z,9.28
2023-03-27T16:54:34.905Z,9.37
2023-03-27T16:57:01.888Z,9.47
2023-03-27T16:59:28.675Z,9.52
2023-03-27T17:01:55.916Z,9.44
2023-03-27T17:04:22.941Z,9.47
2023-03-27T17:06:49.619Z,9.40
2023-03-27T17:09:16.410Z,9.41
2023-03-27T17:11:43.106Z,9.34
2023-03-27T17:14:10.551Z,9.32
2023-03-27T17:16:37.253Z,9.23
2023-03-27T17:19:04.471Z,9.06
2023-03-27T17:21:31.165Z,9.08
2023-03-27T17:23:58.318Z,9.01
2023-03-27T17:26:31.246Z,8.86
2023-03-27T17:28:59.796Z,8.73
2023-03-27T17:31:30.209Z,8.59
2023-03-27T17:33:59.786Z,8.56
2023-03-27T17:36:41.197Z,8.53
2023-03-27T17:39:11.210Z,8.50
2023-03-27T17:41:40.182Z,8.48
2023-03-27T17:44:08.956Z,8.39
2023-03-27T17:46:39.082Z,8.36
2023-03-27T17:49:08.551Z,8.28
2023-03-27T17:51:37.121Z,8.25
2023-03-27T17:54:04.639Z,8.18
2023-03-27T17:56:31.336Z,8.14
2023-03-27T17:58:57.956Z,8.06
2023-03-27T18:01:24.918Z,8.01
2023-03-27T18:03:51.865Z,7.92
2023-03-27T18:06:19.183Z,7.85
2023-03-27T18:08:46.716Z,7.79
2023-03-27T18:11:15.587Z,7.62
2023-03-27T18:13:42.766Z,7.55
2023-03-27T18:16:10.845Z,7.48
2023-03-27T18:18:39.216Z,7.39
2023-03-27T18:21:06.834Z,7.29
2023-03-27T18:23:35.087Z,7.19
2023-03-27T18:26:08.939Z,6.96
2023-03-27T18:28:35.870Z,6.75
2023-03-27T18:31:11.230Z,6.56
2023-03-27T18:33:38.082Z,6.43
2023-03-27T18:36:12.052Z,6.27
2023-03-27T18:38:40.579Z,6.17
2023-03-27T18:41:07.744Z,6.10
2023-03-27T18:43:35.247Z,5.97
2023-03-27T18:46:04.456Z,5.89
2023-03-27T18:48:31.512Z,5.75
2023-03-27T18:51:01.513Z,5.70
2023-03-27T18:53:29.047Z,5.53
2023-03-27T18:55:58.780Z,5.39
2023-03-27T18:58:27.584Z,5.30
2023-03-27T19:00:55.740Z,5.25
2023-03-27T19:03:25.501Z,5.14
2023-03-27T19:05:52.781Z,5.06
2023-03-27T19:08:21.344Z,4.93
2023-03-27T19:10:48.710Z,4.86
2023-03-27T19:13:16.031Z,4.76
2023-03-27T19:15:43.190Z,4.65
2023-03-27T19:18:10.020Z,4.64
2023-03-27T19:20:36.715Z,4.58
2023-03-27T19:23:03.701Z,4.56
2023-03-27T19:25:33.553Z,4.53
2023-03-27T19:28:01.406Z,4.39
2023-03-27T19:30:29.097Z,4.36
2023-03-27T19:32:58.096Z,4.32
2023-03-27T19:35:25.823Z,4.30
2023-03-27T19:37:52.530Z,4.25
2023-03-27T19:40:19.179Z,4.26
2023-03-27T19:42:45.840Z,4.25
2023-03-27T19:45:12.595Z,4.22
2023-03-27T19:47:39.350Z,4.12
2023-03-27T19:50:07.408Z,4.08
2023-03-27T19:52:34.306Z,4.10
2023-03-27T19:55:01.236Z,3.99
2023-03-27T19:57:29.785Z,4.01
2023-03-27T19:59:59.190Z,3.96
2023-03-27T20:02:28.653Z,3.92
2023-03-27T20:04:57.543Z,3.88
2023-03-27T20:07:27.525Z,3.85
2023-03-27T20:09:56.180Z,3.83
2023-03-27T20:12:25.807Z,3.88
2023-03-27T20:15:09.891Z,3.78
2023-03-27T20:17:40.044Z,3.82
2023-03-27T20:20:13.103Z,3.86
2023-03-27T20:22:54.251Z,3.90
2023-03-27T20:25:23.741Z,3.87
2023-03-27T20:27:50.400Z,3.89
2023-03-27T20:30:17.125Z,3.94
2023-03-27T20:32:43.906Z,3.96
2023-03-27T20:35:22.819Z,4.02
2023-03-27T20:37:56.360Z,4.08
2023-03-27T20:40:24.739Z,4.02
2023-03-27T20:43:03.851Z,4.02
2023-03-27T20:45:31.183Z,4.05
2023-03-27T20:48:03.815Z,4.06
2023-03-27T20:50:31.677Z,4.04
2023-03-27T20:52:58.408Z,4.07
2023-03-27T20:55:33.677Z,4.11
2023-03-27T20:58:06.627Z,4.15
2023-03-27T21:00:33.607Z,4.21
2023-03-27T21:03:00.433Z,4.29
2023-03-27T21:05:27.748Z,4.40
2023-03-27T21:07:54.393Z,4.43
2023-03-27T21:10:21.351Z,4.52
2023-03-27T21:12:48.703Z,4.53
2023-03-27T21:15:15.560Z,4.49
2023-03-27T21:17:42.413Z,4.53
2023-03-27T21:20:10.378Z,4.56
2023-03-27T21:22:37.004Z,4.54
2023-03-27T21:25:03.790Z,4.57
2023-03-27T21:27:31.106Z,4.64
2023-03-27T21:29:57.894Z,4.74
2023-03-27T21:32:24.729Z,4.83
2023-03-27T21:34:51.395Z,4.89
2023-03-27T21:37:18.006Z,4.97
2023-03-27T21:39:44.640Z,5.07
2023-03-27T21:42:11.879Z,5.09
2023-03-27T21:44:38.505Z,5.13
2023-03-27T21:47:05.221Z,5.19
2023-03-27T21:49:31.881Z,5.22
2023-03-27T21:51:58.497Z,5.28
2023-03-27T21:54:25.273Z,5.27
2023-03-27T21:56:51.906Z,5.30
2023-03-27T21:59:18.529Z,5.33
2023-03-27T22:01:45.250Z,5.35
2023-03-27T22:04:11.934Z,5.31
2023-03-27T22:06:38.559Z,5.36
2023-03-27T22:09:05.242Z,5.34
2023-03-27T22:11:31.856Z,5.28
2023-03-27T22:13:59.307Z,5.26
2023-03-27T22:16:26.114Z,5.27
2023-03-27T22:18:52.736Z,5.27
2023-03-27T22:21:25.839Z,5.27
2023-03-27T22:23:54.034Z,5.24
2023-03-27T22:26:26.259Z,5.23
2023-03-27T22:28:52.875Z,5.23
2023-03-27T22:31:21.331Z,5.21
2023-03-27T22:33:48.961Z,5.26
2023-03-27T22:36:15.792Z,5.26
2023-03-27T22:38:43.246Z,5.25
2023-03-27T22:41:12.732Z,5.22
2023-03-27T22:43:39.633Z,5.24
2023-03-27T22:46:14.393Z,5.27
2023-03-27T22:48:41.403Z,5.25
2023-03-27T22:51:09.758Z,5.29
2023-03-27T22:53:37.429Z,5.27
2023-03-27T22:56:04.797Z,5.31
2023-03-27T22:58:32.262Z,5.30
2023-03-27T23:00:59.636Z,5.32
2023-03-27T23:03:28.080Z,5.30
2023-03-27T23:05:55.362Z,5.31
2023-03-27T23:08:24.316Z,5.28
2023-03-27T23:10:56.308Z,5.31
2023-03-27T23:13:23.857Z,5.33
2023-03-27T23:15:51.907Z,5.29
2023-03-27T23:18:23.755Z,5.31
2023-03-27T23:20:59.865Z,5.25
2023-03-27T23:23:27.918Z,5.23
2023-03-27T23:25:55.632Z,5.25
2023-03-27T23:28:22.329Z,5.23
2023-03-27T23:30:53.248Z,5.22
2023-03-27T23:33:19.918Z,5.19
2023-03-27T23:35:47.090Z,5.19
2023-03-27T23:38:13.776Z,5.15
2023-03-27T23:40:40.549Z,5.15
2023-03-27T23:43:07.181Z,5.16
2023-03-27T23:45:33.868Z,5.19
2023-03-27T23:48:00.531Z,5.12
2023-03-27T23:50:27.530Z,5.11
2023-03-27T23:52:54.150Z,5.06
2023-03-27T23:55:20.785Z,5.08
2023-03-27T23:57:47.372Z,5.05
